sensor_id;sensor_type;location;lat;lon;timestamp;pressure;altitude;pressure_sealevel;temperature;humidity
50292;BME280;36190;54.980;73.388;2023-05-12T00:01:36;100694.69;;;6.55;67.00
50292;BME280;36190;54.980;73.388;2023-05-12T00:04:05;100693.97;;;6.53;67.18
50292;BME280;36190;54.980;73.388;2023-05-12T00:06:33;100706.97;;;6.56;66.87
50292;BME280;36190;54.980;73.388;2023-05-12T00:09:01;100699.44;;;6.62;66.52
50292;BME280;36190;54.980;73.388;2023-05-12T00:11:28;100706.16;;;6.66;66.38
50292;BME280;36190;54.980;73.388;2023-05-12T00:13:56;100712.59;;;6.63;66.18
50292;BME280;36190;54.980;73.388;2023-05-12T00:16:23;100713.28;;;6.65;65.87
50292;BME280;36190;54.980;73.388;2023-05-12T00:18:51;100718.72;;;6.64;65.81
50292;BME280;36190;54.980;73.388;2023-05-12T00:21:20;100723.19;;;6.63;65.61
50292;BME280;36190;54.980;73.388;2023-05-12T00:23:47;100730.00;;;6.66;65.44
50292;BME280;36190;54.980;73.388;2023-05-12T00:26:15;100735.75;;;6.71;65.24
50292;BME280;36190;54.980;73.388;2023-05-12T00:28:42;100741.63;;;6.74;64.88
50292;BME280;36190;54.980;73.388;2023-05-12T00:31:10;100747.50;;;6.78;64.51
50292;BME280;36190;54.980;73.388;2023-05-12T00:33:37;100742.91;;;6.80;64.22
50292;BME280;36190;54.980;73.388;2023-05-12T00:36:06;100743.59;;;6.82;63.90
50292;BME280;36190;54.980;73.388;2023-05-12T00:38:35;100746.13;;;6.84;63.70
50292;BME280;36190;54.980;73.388;2023-05-12T00:41:03;100748.13;;;6.92;63.38
50292;BME280;36190;54.980;73.388;2023-05-12T00:43:30;100757.59;;;6.94;63.09
50292;BME280;36190;54.980;73.388;2023-05-12T00:45:58;100753.03;;;6.96;62.66
50292;BME280;36190;54.980;73.388;2023-05-12T00:48:26;100753.72;;;6.98;62.36
50292;BME280;36190;54.980;73.388;2023-05-12T00:50:54;100757.63;;;7.04;62.11
50292;BME280;36190;54.980;73.388;2023-05-12T00:53:22;100764.38;;;7.08;61.73
50292;BME280;36190;54.980;73.388;2023-05-12T00:55:51;100772.91;;;7.12;61.39
50292;BME280;36190;54.980;73.388;2023-05-12T00:58:20;100775.25;;;7.15;61.23
50292;BME280;36190;54.980;73.388;2023-05-12T01:00:47;100768.16;;;7.15;60.90
50292;BME280;36190;54.980;73.388;2023-05-12T01:03:15;100767.31;;;7.15;60.81
50292;BME280;36190;54.980;73.388;2023-05-12T01:05:48;100771.06;;;7.12;60.46
50292;BME280;36190;54.980;73.388;2023-05-12T01:08:16;100773.31;;;7.27;60.53
50292;BME280;36190;54.980;73.388;2023-05-12T01:10:44;100770.38;;;7.30;59.83
50292;BME280;36190;54.980;73.388;2023-05-12T01:13:13;100780.03;;;7.31;59.41
50292;BME280;36190;54.980;73.388;2023-05-12T01:15:44;100774.00;;;7.19;59.31
50292;BME280;36190;54.980;73.388;2023-05-12T01:18:14;100784.75;;;7.27;59.10
50292;BME280;36190;54.980;73.388;2023-05-12T01:20:42;100787.41;;;7.27;59.07
50292;BME280;36190;54.980;73.388;2023-05-12T01:23:11;100791.22;;;7.25;58.75
50292;BME280;36190;54.980;73.388;2023-05-12T01:25:40;100792.88;;;7.26;58.68
50292;BME280;36190;54.980;73.388;2023-05-12T01:28:10;100788.13;;;7.20;58.60
50292;BME280;36190;54.980;73.388;2023-05-12T01:30:39;100795.66;;;7.24;58.40
50292;BME280;36190;54.980;73.388;2023-05-12T01:33:07;100794.44;;;7.28;58.37
50292;BME280;36190;54.980;73.388;2023-05-12T01:35:35;100791.78;;;7.38;58.08
50292;BME280;36190;54.980;73.388;2023-05-12T01:38:02;100796.25;;;7.48;57.76
50292;BME280;36190;54.980;73.388;2023-05-12T01:40:30;100787.75;;;7.54;57.54
50292;BME280;36190;54.980;73.388;2023-05-12T01:42:57;100795.72;;;7.64;57.44
50292;BME280;36190;54.980;73.388;2023-05-12T01:45:26;100802.97;;;7.71;57.09
50292;BME280;36190;54.980;73.388;2023-05-12T01:47:54;100805.94;;;7.78;56.84
50292;BME280;36190;54.980;73.388;2023-05-12T01:50:21;100813.06;;;7.78;56.71
50292;BME280;36190;54.980;73.388;2023-05-12T01:52:48;100822.00;;;7.77;56.60
50292;BME280;36190;54.980;73.388;2023-05-12T01:55:16;100816.13;;;7.73;56.35
50292;BME280;36190;54.980;73.388;2023-05-12T01:57:44;100820.22;;;7.77;56.49
50292;BME280;36190;54.980;73.388;2023-05-12T02:00:12;100830.13;;;7.85;56.39
50292;BME280;36190;54.980;73.388;2023-05-12T02:02:41;100824.53;;;7.88;56.10
50292;BME280;36190;54.980;73.388;2023-05-12T02:05:08;100829.97;;;7.96;55.94
50292;BME280;36190;54.980;73.388;2023-05-12T02:07:36;100826.75;;;8.03;55.62
50292;BME280;36190;54.980;73.388;2023-05-12T02:10:04;100833.50;;;8.07;55.60
50292;BME280;36190;54.980;73.388;2023-05-12T02:12:32;100829.00;;;8.07;55.43
50292;BME280;36190;54.980;73.388;2023-05-12T02:15:00;100833.50;;;8.07;55.36
50292;BME280;36190;54.980;73.388;2023-05-12T02:17:27;100834.88;;;8.11;55.21
50292;BME280;36190;54.980;73.388;2023-05-12T02:19:56;100841.72;;;8.14;55.17
50292;BME280;36190;54.980;73.388;2023-05-12T02:22:23;100836.13;;;8.17;54.91
50292;BME280;36190;54.980;73.388;2023-05-12T02:24:51;100843.81;;;8.20;54.73
50292;BME280;36190;54.980;73.388;2023-05-12T02:27:18;100839.75;;;8.25;54.88
50292;BME280;36190;54.980;73.388;2023-05-12T02:29:46;100842.41;;;8.35;54.48
50292;BME280;36190;54.980;73.388;2023-05-12T02:32:13;100835.38;;;8.44;54.29
50292;BME280;36190;54.980;73.388;2023-05-12T02:34:41;100840.56;;;8.56;54.17
50292;BME280;36190;54.980;73.388;2023-05-12T02:37:10;100835.63;;;8.71;53.83
50292;BME280;36190;54.980;73.388;2023-05-12T02:39:37;100840.63;;;8.84;53.52
50292;BME280;36190;54.980;73.388;2023-05-12T02:42:06;100841.72;;;8.91;53.55
50292;BME280;36190;54.980;73.388;2023-05-12T02:44:33;100840.16;;;8.98;53.09
50292;BME280;36190;54.980;73.388;2023-05-12T02:47:01;100849.50;;;9.02;53.01
50292;BME280;36190;54.980;73.388;2023-05-12T02:49:28;100847.56;;;9.04;52.84
50292;BME280;36190;54.980;73.388;2023-05-12T02:51:57;100843.91;;;9.05;52.70
50292;BME280;36190;54.980;73.388;2023-05-12T02:54:26;100841.25;;;9.05;52.47
50292;BME280;36190;54.980;73.388;2023-05-12T02:56:53;100845.28;;;9.10;52.50
50292;BME280;36190;54.980;73.388;2023-05-12T02:59:23;100846.78;;;9.22;52.25
50292;BME280;36190;54.980;73.388;2023-05-12T03:01:50;100850.50;;;9.29;52.06
50292;BME280;36190;54.980;73.388;2023-05-12T03:04:17;100856.13;;;9.26;52.00
50292;BME280;36190;54.980;73.388;2023-05-12T03:06:45;100849.81;;;9.27;51.68
50292;BME280;36190;54.980;73.388;2023-05-12T03:09:12;100857.06;;;9.35;51.65
50292;BME280;36190;54.980;73.388;2023-05-12T03:11:42;100856.63;;;9.40;51.25
50292;BME280;36190;54.980;73.388;2023-05-12T03:14:10;100853.81;;;9.41;50.93
50292;BME280;36190;54.980;73.388;2023-05-12T03:16:37;100857.03;;;9.45;50.63
50292;BME280;36190;54.980;73.388;2023-05-12T03:19:05;100867.75;;;9.53;50.23
50292;BME280;36190;54.980;73.388;2023-05-12T03:21:32;100863.94;;;9.56;49.78
50292;BME280;36190;54.980;73.388;2023-05-12T03:24:00;100875.75;;;9.53;49.41
50292;BME280;36190;54.980;73.388;2023-05-12T03:26:28;100880.63;;;9.58;49.09
50292;BME280;36190;54.980;73.388;2023-05-12T03:28:56;100876.44;;;9.55;48.33
50292;BME280;36190;54.980;73.388;2023-05-12T03:31:24;100875.03;;;9.51;48.22
50292;BME280;36190;54.980;73.388;2023-05-12T03:33:52;100879.00;;;9.47;47.92
50292;BME280;36190;54.980;73.388;2023-05-12T03:36:19;100878.88;;;9.48;47.77
50292;BME280;36190;54.980;73.388;2023-05-12T03:38:46;100881.22;;;9.52;47.66
50292;BME280;36190;54.980;73.388;2023-05-12T03:41:14;100873.47;;;9.58;47.42
50292;BME280;36190;54.980;73.388;2023-05-12T03:43:43;100885.28;;;9.74;47.06
50292;BME280;36190;54.980;73.388;2023-05-12T03:46:11;100888.03;;;9.82;46.64
50292;BME280;36190;54.980;73.388;2023-05-12T03:48:39;100873.19;;;9.80;46.29
50292;BME280;36190;54.980;73.388;2023-05-12T03:51:07;100876.84;;;9.79;46.43
50292;BME280;36190;54.980;73.388;2023-05-12T03:53:34;100881.88;;;9.82;46.49
50292;BME280;36190;54.980;73.388;2023-05-12T03:56:04;100884.16;;;9.95;46.05
50292;BME280;36190;54.980;73.388;2023-05-12T03:58:32;100880.59;;;10.04;45.71
50292;BME280;36190;54.980;73.388;2023-05-12T04:01:00;100886.28;;;10.09;45.35
50292;BME280;36190;54.980;73.388;2023-05-12T04:03:29;100873.81;;;10.10;45.14
50292;BME280;36190;54.980;73.388;2023-05-12T04:05:57;100880.19;;;10.17;44.81
50292;BME280;36190;54.980;73.388;2023-05-12T04:08:25;100888.59;;;10.22;44.86
50292;BME280;36190;54.980;73.388;2023-05-12T04:10:54;100886.41;;;10.26;44.69
50292;BME280;36190;54.980;73.388;2023-05-12T04:13:22;100880.78;;;10.29;44.07
50292;BME280;36190;54.980;73.388;2023-05-12T04:15:50;100888.19;;;10.35;43.98
50292;BME280;36190;54.980;73.388;2023-05-12T04:18:17;100883.47;;;10.47;43.89
50292;BME280;36190;54.980;73.388;2023-05-12T04:20:46;100879.69;;;10.58;43.60
50292;BME280;36190;54.980;73.388;2023-05-12T04:23:14;100882.41;;;10.66;43.61
50292;BME280;36190;54.980;73.388;2023-05-12T04:25:41;100881.97;;;10.71;43.42
50292;BME280;36190;54.980;73.388;2023-05-12T04:28:09;100866.78;;;10.71;43.33
50292;BME280;36190;54.980;73.388;2023-05-12T04:30:38;100880.41;;;10.95;43.24
50292;BME280;36190;54.980;73.388;2023-05-12T04:33:06;100887.28;;;10.97;42.73
50292;BME280;36190;54.980;73.388;2023-05-12T04:35:34;100887.59;;;10.94;42.53
50292;BME280;36190;54.980;73.388;2023-05-12T04:38:03;100888.59;;;10.93;42.43
50292;BME280;36190;54.980;73.388;2023-05-12T04:40:31;100879.75;;;10.93;42.43
50292;BME280;36190;54.980;73.388;2023-05-12T04:42:58;100877.97;;;11.02;42.32
50292;BME280;36190;54.980;73.388;2023-05-12T04:45:26;100876.69;;;11.14;42.24
50292;BME280;36190;54.980;73.388;2023-05-12T04:47:53;100887.25;;;11.24;41.89
50292;BME280;36190;54.980;73.388;2023-05-12T04:50:21;100889.75;;;11.25;41.71
50292;BME280;36190;54.980;73.388;2023-05-12T04:52:48;100879.19;;;11.16;41.42
50292;BME280;36190;54.980;73.388;2023-05-12T04:55:17;100886.31;;;11.07;41.00
50292;BME280;36190;54.980;73.388;2023-05-12T04:57:44;100888.66;;;11.02;41.08
50292;BME280;36190;54.980;73.388;2023-05-12T05:00:13;100884.13;;;11.02;41.08
50292;BME280;36190;54.980;73.388;2023-05-12T05:02:41;100883.94;;;10.95;40.77
50292;BME280;36190;54.980;73.388;2023-05-12T05:05:08;100883.94;;;10.95;40.88
50292;BME280;36190;54.980;73.388;2023-05-12T05:07:36;100876.63;;;11.06;40.57
50292;BME280;36190;54.980;73.388;2023-05-12T05:10:05;100873.03;;;11.23;40.24
50292;BME280;36190;54.980;73.388;2023-05-12T05:12:34;100879.13;;;11.34;39.97
50292;BME280;36190;54.980;73.388;2023-05-12T05:15:01;100883.47;;;11.43;39.98
50292;BME280;36190;54.980;73.388;2023-05-12T05:17:29;100884.16;;;11.45;39.31
50292;BME280;36190;54.980;73.388;2023-05-12T05:19:56;100882.81;;;11.41;39.21
50292;BME280;36190;54.980;73.388;2023-05-12T05:22:23;100889.44;;;11.28;39.21
50292;BME280;36190;54.980;73.388;2023-05-12T05:24:52;100879.72;;;11.19;39.37
50292;BME280;36190;54.980;73.388;2023-05-12T05:27:19;100881.69;;;11.09;39.27
50292;BME280;36190;54.980;73.388;2023-05-12T05:29:48;100885.34;;;11.08;39.16
50292;BME280;36190;54.980;73.388;2023-05-12T05:32:15;100885.66;;;11.05;39.10
50292;BME280;36190;54.980;73.388;2023-05-12T05:34:43;100890.31;;;11.03;39.17
50292;BME280;36190;54.980;73.388;2023-05-12T05:37:10;100882.00;;;11.14;38.84
50292;BME280;36190;54.980;73.388;2023-05-12T05:39:38;100873.91;;;11.32;38.48
50292;BME280;36190;54.980;73.388;2023-05-12T05:42:06;100883.03;;;11.56;38.43
50292;BME280;36190;54.980;73.388;2023-05-12T05:44:33;100876.72;;;11.74;38.25
50292;BME280;36190;54.980;73.388;2023-05-12T05:47:02;100886.75;;;11.80;38.17
50292;BME280;36190;54.980;73.388;2023-05-12T05:49:29;100871.72;;;11.79;38.55
50292;BME280;36190;54.980;73.388;2023-05-12T05:51:57;100872.22;;;11.91;38.34
50292;BME280;36190;54.980;73.388;2023-05-12T05:54:24;100875.59;;;12.01;38.09
50292;BME280;36190;54.980;73.388;2023-05-12T05:56:52;100876.94;;;12.05;37.81
50292;BME280;36190;54.980;73.388;2023-05-12T05:59:19;100870.28;;;12.09;37.76
50292;BME280;36190;54.980;73.388;2023-05-12T06:01:47;100881.81;;;12.10;37.53
50292;BME280;36190;54.980;73.388;2023-05-12T06:04:16;100875.97;;;12.06;37.05
50292;BME280;36190;54.980;73.388;2023-05-12T06:06:43;100874.25;;;12.05;36.98
50292;BME280;36190;54.980;73.388;2023-05-12T06:09:11;100876.63;;;12.08;36.82
50292;BME280;36190;54.980;73.388;2023-05-12T06:11:40;100873.78;;;12.18;36.77
50292;BME280;36190;54.980;73.388;2023-05-12T06:14:07;100875.28;;;12.29;36.35
50292;BME280;36190;54.980;73.388;2023-05-12T06:16:36;100870.44;;;12.33;36.19
50292;BME280;36190;54.980;73.388;2023-05-12T06:19:04;100871.94;;;12.35;36.02
50292;BME280;36190;54.980;73.388;2023-05-12T06:21:33;100868.09;;;12.38;36.01
50292;BME280;36190;54.980;73.388;2023-05-12T06:24:00;100870.91;;;12.53;36.00
50292;BME280;36190;54.980;73.388;2023-05-12T06:26:27;100870.88;;;12.70;36.05
50292;BME280;36190;54.980;73.388;2023-05-12T06:28:55;100869.38;;;12.75;35.80
50292;BME280;36190;54.980;73.388;2023-05-12T06:31:22;100863.22;;;12.58;35.89
50292;BME280;36190;54.980;73.388;2023-05-12T06:33:50;100867.44;;;12.44;35.88
50292;BME280;36190;54.980;73.388;2023-05-12T06:36:17;100861.22;;;12.44;35.83
50292;BME280;36190;54.980;73.388;2023-05-12T06:38:46;100868.91;;;12.55;35.75
50292;BME280;36190;54.980;73.388;2023-05-12T06:41:15;100856.84;;;12.68;35.44
50292;BME280;36190;54.980;73.388;2023-05-12T06:43:43;100869.72;;;12.72;34.87
50292;BME280;36190;54.980;73.388;2023-05-12T06:46:11;100867.19;;;12.71;34.82
50292;BME280;36190;54.980;73.388;2023-05-12T06:48:39;100851.13;;;12.71;34.78
50292;BME280;36190;54.980;73.388;2023-05-12T06:51:06;100838.44;;;12.73;34.57
50292;BME280;36190;54.980;73.388;2023-05-12T06:53:34;100851.78;;;12.81;34.24
50292;BME280;36190;54.980;73.388;2023-05-12T06:56:04;100844.91;;;12.87;33.76
50292;BME280;36190;54.980;73.388;2023-05-12T06:58:32;100840.34;;;13.04;33.69
50292;BME280;36190;54.980;73.388;2023-05-12T07:00:59;100855.63;;;13.27;33.34
50292;BME280;36190;54.980;73.388;2023-05-12T07:03:30;100856.91;;;13.47;33.20
50292;BME280;36190;54.980;73.388;2023-05-12T07:05:58;100853.13;;;13.65;33.14
50292;BME280;36190;54.980;73.388;2023-05-12T07:08:25;100858.38;;;13.82;32.78
50292;BME280;36190;54.980;73.388;2023-05-12T07:10:53;100851.94;;;13.91;32.79
50292;BME280;36190;54.980;73.388;2023-05-12T07:13:22;100854.59;;;13.91;32.63
50292;BME280;36190;54.980;73.388;2023-05-12T07:15:49;100854.53;;;13.99;32.54
50292;BME280;36190;54.980;73.388;2023-05-12T07:18:17;100842.72;;;14.09;32.81
50292;BME280;36190;54.980;73.388;2023-05-12T07:20:44;100849.19;;;14.23;32.88
50292;BME280;36190;54.980;73.388;2023-05-12T07:23:12;100847.16;;;14.40;32.51
50292;BME280;36190;54.980;73.388;2023-05-12T07:25:39;100834.97;;;14.52;32.35
50292;BME280;36190;54.980;73.388;2023-05-12T07:28:06;100829.53;;;14.61;32.20
50292;BME280;36190;54.980;73.388;2023-05-12T07:30:35;100839.50;;;14.67;31.93
50292;BME280;36190;54.980;73.388;2023-05-12T07:33:03;100832.94;;;14.54;31.66
50292;BME280;36190;54.980;73.388;2023-05-12T07:35:31;100829.00;;;14.42;31.75
50292;BME280;36190;54.980;73.388;2023-05-12T07:37:59;100823.94;;;14.47;31.70
50292;BME280;36190;54.980;73.388;2023-05-12T07:40:28;100820.69;;;14.67;31.40
50292;BME280;36190;54.980;73.388;2023-05-12T07:42:55;100820.19;;;14.87;31.09
50292;BME280;36190;54.980;73.388;2023-05-12T07:45:22;100814.34;;;14.98;30.79
50292;BME280;36190;54.980;73.388;2023-05-12T07:47:51;100820.16;;;15.17;30.69
50292;BME280;36190;54.980;73.388;2023-05-12T07:50:19;100814.94;;;15.30;30.44
50292;BME280;36190;54.980;73.388;2023-05-12T07:52:47;100814.69;;;15.25;29.97
50292;BME280;36190;54.980;73.388;2023-05-12T07:55:15;100813.44;;;15.27;30.07
50292;BME280;36190;54.980;73.388;2023-05-12T07:57:43;100804.81;;;15.32;29.81
50292;BME280;36190;54.980;73.388;2023-05-12T08:00:11;100805.88;;;15.53;29.64
50292;BME280;36190;54.980;73.388;2023-05-12T08:02:40;100795.13;;;15.75;29.50
50292;BME280;36190;54.980;73.388;2023-05-12T08:05:09;100796.38;;;15.94;29.04
50292;BME280;36190;54.980;73.388;2023-05-12T08:07:38;100801.28;;;15.90;28.98
50292;BME280;36190;54.980;73.388;2023-05-12T08:10:08;100791.84;;;15.79;28.86
50292;BME280;36190;54.980;73.388;2023-05-12T08:12:36;100798.44;;;15.77;28.88
50292;BME280;36190;54.980;73.388;2023-05-12T08:15:05;100796.25;;;15.87;28.73
50292;BME280;36190;54.980;73.388;2023-05-12T08:17:33;100791.25;;;16.06;28.32
50292;BME280;36190;54.980;73.388;2023-05-12T08:20:01;100788.00;;;16.39;28.16
50292;BME280;36190;54.980;73.388;2023-05-12T08:22:31;100799.97;;;16.65;27.33
50292;BME280;36190;54.980;73.388;2023-05-12T08:24:58;100786.78;;;16.84;27.20
50292;BME280;36190;54.980;73.388;2023-05-12T08:27:26;100790.94;;;17.35;27.01
50292;BME280;36190;54.980;73.388;2023-05-12T08:29:54;100799.91;;;17.76;26.49
50292;BME280;36190;54.980;73.388;2023-05-12T08:32:21;100797.88;;;18.19;25.93
50292;BME280;36190;54.980;73.388;2023-05-12T08:34:49;100804.09;;;18.26;25.62
50292;BME280;36190;54.980;73.388;2023-05-12T08:37:16;100801.63;;;18.18;25.43
50292;BME280;36190;54.980;73.388;2023-05-12T08:39:45;100805.97;;;18.19;25.19
50292;BME280;36190;54.980;73.388;2023-05-12T08:42:25;100792.44;;;18.39;24.94
50292;BME280;36190;54.980;73.388;2023-05-12T08:44:58;100787.63;;;18.61;24.87
50292;BME280;36190;54.980;73.388;2023-05-12T08:47:26;100801.28;;;18.80;24.73
50292;BME280;36190;54.980;73.388;2023-05-12T08:49:58;100813.41;;;18.64;24.58
50292;BME280;36190;54.980;73.388;2023-05-12T08:52:26;100806.59;;;18.34;24.62
50292;BME280;36190;54.980;73.388;2023-05-12T08:54:57;100812.00;;;18.34;25.03
50292;BME280;36190;54.980;73.388;2023-05-12T08:57:25;100814.06;;;18.46;24.56
50292;BME280;36190;54.980;73.388;2023-05-12T08:59:54;100814.22;;;18.64;24.38
50292;BME280;36190;54.980;73.388;2023-05-12T09:02:22;100804.19;;;18.85;24.10
50292;BME280;36190;54.980;73.388;2023-05-12T09:04:50;100807.47;;;19.01;23.99
50292;BME280;36190;54.980;73.388;2023-05-12T09:07:20;100802.56;;;19.30;23.73
50292;BME280;36190;54.980;73.388;2023-05-12T09:09:56;100815.59;;;19.46;23.25
50292;BME280;36190;54.980;73.388;2023-05-12T09:12:30;100820.34;;;19.51;23.21
50292;BME280;36190;54.980;73.388;2023-05-12T09:14:59;100814.19;;;19.69;23.68
50292;BME280;36190;54.980;73.388;2023-05-12T09:17:29;100832.16;;;19.63;22.85
50292;BME280;36190;54.980;73.388;2023-05-12T09:19:56;100819.75;;;19.49;22.77
50292;BME280;36190;54.980;73.388;2023-05-12T09:22:31;100822.03;;;19.45;22.31
50292;BME280;36190;54.980;73.388;2023-05-12T09:24:59;100806.50;;;19.34;22.53
50292;BME280;36190;54.980;73.388;2023-05-12T09:27:29;100816.97;;;19.56;22.37
50292;BME280;36190;54.980;73.388;2023-05-12T09:29:56;100802.38;;;19.89;22.18
50292;BME280;36190;54.980;73.388;2023-05-12T09:32:30;100808.81;;;20.20;21.80
50292;BME280;36190;54.980;73.388;2023-05-12T09:35:01;100804.66;;;20.61;21.51
50292;BME280;36190;54.980;73.388;2023-05-12T09:37:30;100800.88;;;21.19;21.43
50292;BME280;36190;54.980;73.388;2023-05-12T09:39:58;100805.94;;;21.57;20.90
50292;BME280;36190;54.980;73.388;2023-05-12T09:42:29;100807.59;;;21.47;20.65
50292;BME280;36190;54.980;73.388;2023-05-12T09:45:01;100789.69;;;21.27;20.86
50292;BME280;36190;54.980;73.388;2023-05-12T09:47:33;100804.97;;;21.40;20.95
50292;BME280;36190;54.980;73.388;2023-05-12T09:50:03;100806.53;;;21.48;20.87
50292;BME280;36190;54.980;73.388;2023-05-12T09:52:35;100800.38;;;21.40;20.44
50292;BME280;36190;54.980;73.388;2023-05-12T09:55:08;100806.31;;;21.61;20.71
50292;BME280;36190;54.980;73.388;2023-05-12T09:57:38;100815.28;;;21.92;20.58
50292;BME280;36190;54.980;73.388;2023-05-12T10:00:08;100813.16;;;22.18;19.99
50292;BME280;36190;54.980;73.388;2023-05-12T10:02:39;100802.56;;;22.41;19.77
50292;BME280;36190;54.980;73.388;2023-05-12T10:05:14;100812.59;;;22.64;19.51
50292;BME280;36190;54.980;73.388;2023-05-12T10:07:43;100809.16;;;22.45;19.67
50292;BME280;36190;54.980;73.388;2023-05-12T10:10:14;100807.50;;;22.32;19.79
50292;BME280;36190;54.980;73.388;2023-05-12T10:12:45;100800.88;;;22.51;19.66
50292;BME280;36190;54.980;73.388;2023-05-12T10:15:14;100804.25;;;22.83;19.47
50292;BME280;36190;54.980;73.388;2023-05-12T10:17:43;100799.59;;;23.07;19.31
50292;BME280;36190;54.980;73.388;2023-05-12T10:20:12;100794.03;;;23.60;19.20
50292;BME280;36190;54.980;73.388;2023-05-12T10:22:39;100799.34;;;24.01;18.78
50292;BME280;36190;54.980;73.388;2023-05-12T10:25:08;100795.31;;;24.03;18.57
50292;BME280;36190;54.980;73.388;2023-05-12T10:27:36;100787.69;;;23.88;18.59
50292;BME280;36190;54.980;73.388;2023-05-12T10:30:07;100787.19;;;23.74;18.44
50292;BME280;36190;54.980;73.388;2023-05-12T10:32:35;100794.59;;;23.45;18.36
50292;BME280;36190;54.980;73.388;2023-05-12T10:35:09;100796.34;;;22.93;18.36
50292;BME280;36190;54.980;73.388;2023-05-12T10:37:38;100798.41;;;22.38;18.89
50292;BME280;36190;54.980;73.388;2023-05-12T10:40:07;100796.41;;;22.21;18.96
50292;BME280;36190;54.980;73.388;2023-05-12T10:42:40;100799.47;;;22.13;18.71
50292;BME280;36190;54.980;73.388;2023-05-12T10:45:16;100788.97;;;22.17;18.61
50292;BME280;36190;54.980;73.388;2023-05-12T10:47:44;100788.47;;;22.32;18.86
50292;BME280;36190;54.980;73.388;2023-05-12T10:50:13;100791.19;;;22.67;18.66
50292;BME280;36190;54.980;73.388;2023-05-12T10:52:40;100795.03;;;23.25;18.41
50292;BME280;36190;54.980;73.388;2023-05-12T10:55:29;100791.31;;;23.60;18.12
50292;BME280;36190;54.980;73.388;2023-05-12T10:58:03;100795.75;;;23.49;17.89
50292;BME280;36190;54.980;73.388;2023-05-12T11:00:42;100780.06;;;23.39;18.08
50292;BME280;36190;54.980;73.388;2023-05-12T11:03:14;100799.34;;;24.01;17.50
50292;BME280;36190;54.980;73.388;2023-05-12T11:05:43;100806.75;;;24.62;17.64
50292;BME280;36190;54.980;73.388;2023-05-12T11:08:11;100804.25;;;25.22;17.40
50292;BME280;36190;54.980;73.388;2023-05-12T11:10:42;100811.88;;;26.13;16.81
50292;BME280;36190;54.980;73.388;2023-05-12T11:13:11;100808.16;;;26.78;16.24
50292;BME280;36190;54.980;73.388;2023-05-12T11:15:43;100808.56;;;27.18;15.54
50292;BME280;36190;54.980;73.388;2023-05-12T11:18:10;100807.19;;;27.26;15.83
50292;BME280;36190;54.980;73.388;2023-05-12T11:20:38;100818.97;;;27.21;15.99
50292;BME280;36190;54.980;73.388;2023-05-12T11:23:05;100814.31;;;27.11;15.94
50292;BME280;36190;54.980;73.388;2023-05-12T11:25:33;100806.72;;;27.55;15.73
50292;BME280;36190;54.980;73.388;2023-05-12T11:28:02;100815.50;;;28.09;15.38
50292;BME280;36190;54.980;73.388;2023-05-12T11:30:29;100814.41;;;28.05;15.23
50292;BME280;36190;54.980;73.388;2023-05-12T11:33:01;100807.00;;;27.90;14.89
50292;BME280;36190;54.980;73.388;2023-05-12T11:35:30;100812.19;;;28.12;15.00
50292;BME280;36190;54.980;73.388;2023-05-12T11:37:57;100817.13;;;28.41;14.45
50292;BME280;36190;54.980;73.388;2023-05-12T11:40:24;100819.03;;;28.35;14.31
50292;BME280;36190;54.980;73.388;2023-05-12T11:42:52;100822.34;;;28.27;14.31
50292;BME280;36190;54.980;73.388;2023-05-12T11:45:22;100821.22;;;28.33;14.41
50292;BME280;36190;54.980;73.388;2023-05-12T11:47:51;100819.63;;;28.22;14.23
50292;BME280;36190;54.980;73.388;2023-05-12T11:50:21;100807.78;;;28.32;14.16
50292;BME280;36190;54.980;73.388;2023-05-12T11:52:50;100814.91;;;29.09;14.26
50292;BME280;36190;54.980;73.388;2023-05-12T11:55:22;100826.34;;;29.72;13.38
50292;BME280;36190;54.980;73.388;2023-05-12T11:57:57;100816.50;;;29.66;13.25
50292;BME280;36190;54.980;73.388;2023-05-12T12:00:29;100811.09;;;28.34;13.79
50292;BME280;36190;54.980;73.388;2023-05-12T12:03:07;100804.00;;;27.70;13.71
50292;BME280;36190;54.980;73.388;2023-05-12T12:05:37;100801.81;;;27.67;13.99
50292;BME280;36190;54.980;73.388;2023-05-12T12:08:07;100808.00;;;27.21;14.18
50292;BME280;36190;54.980;73.388;2023-05-12T12:10:35;100801.91;;;26.29;14.45
50292;BME280;36190;54.980;73.388;2023-05-12T12:13:02;100797.16;;;26.73;14.42
50292;BME280;36190;54.980;73.388;2023-05-12T12:15:30;100789.44;;;27.54;14.04
50292;BME280;36190;54.980;73.388;2023-05-12T12:17:58;100784.19;;;28.31;13.31
50292;BME280;36190;54.980;73.388;2023-05-12T12:20:25;100780.75;;;28.70;13.42
50292;BME280;36190;54.980;73.388;2023-05-12T12:22:54;100785.88;;;28.98;12.89
50292;BME280;36190;54.980;73.388;2023-05-12T12:25:22;100779.09;;;29.24;12.98
50292;BME280;36190;54.980;73.388;2023-05-12T12:27:49;100782.09;;;29.33;12.56
50292;BME280;36190;54.980;73.388;2023-05-12T12:30:17;100780.13;;;29.74;12.85
50292;BME280;36190;54.980;73.388;2023-05-12T12:32:45;100798.69;;;29.58;12.50
50292;BME280;36190;54.980;73.388;2023-05-12T12:35:13;100779.50;;;29.07;12.47
50292;BME280;36190;54.980;73.388;2023-05-12T12:37:41;100783.19;;;28.87;12.63
50292;BME280;36190;54.980;73.388;2023-05-12T12:40:11;100800.44;;;28.98;12.38
50292;BME280;36190;54.980;73.388;2023-05-12T12:42:38;100784.09;;;28.67;12.81
50292;BME280;36190;54.980;73.388;2023-05-12T12:45:07;100776.75;;;28.47;12.66
50292;BME280;36190;54.980;73.388;2023-05-12T12:47:35;100772.47;;;27.68;12.92
50292;BME280;36190;54.980;73.388;2023-05-12T12:50:04;100767.75;;;27.06;13.42